...

 METAR AND TAF INFORMATION
METAR FOR EFOU
ADDS - METARS form results

(2131 UTC 19 May 2019)
Data provider http://aviationweather.gov/metar/data/
 
METAR text: EFOU 192120Z AUTO 11003KT 070V170 CAVOK 17/08 Q1015
Conditions at: EFOU (OULU/ULEABORG , FI) observed 2120 UTC 19 May 2019
Temperature: 17.0°C (63°F)
Dewpoint: 8.0°C (46°F) [RH = 55%]
Pressure (altimeter): 29.97 inches Hg (1015.0 mb)
Winds: from the ESE (110 degrees) at 3 MPH (3 knots; 1.5 m/s)
Visibility: 6 or more miles (10+ km)
Ceiling: ceiling and visibility are OK
Clouds: unknown
Weather: no significant weather observed at this time

METAR text: EFOU 192050Z AUTO 11005KT CAVOK 18/08 Q1015
Conditions at: EFOU (OULU/ULEABORG , FI) observed 2050 UTC 19 May 2019
Temperature: 18.0°C (64°F)
Dewpoint: 8.0°C (46°F) [RH = 52%]
Pressure (altimeter): 29.97 inches Hg (1015.0 mb)
Winds: from the ESE (110 degrees) at 6 MPH (5 knots; 2.6 m/s)
Visibility: 6 or more miles (10+ km)
Ceiling: ceiling and visibility are OK
Clouds: unknown
Weather: no significant weather observed at this time

Forecast for: EFOU (OULU/ULEABORG , FI)
Text: TAF EFOU 192023Z 1921/2021 11006KT CAVOK
Forecast period: 2100 UTC 19 May 2019 to 2100 UTC 20 May 2019
Forecast type: FROM: standard forecast or significant change
Winds: from the ESE (110 degrees) at 7 MPH (6 knots; 3.1 m/s)
Visibility: 6 or more miles 10+ km)
Ceiling: unknown
Clouds: missing
Weather: NSW  (no significant weather)
Text: TEMPO 2010/2021 SHRA SCT025CB
Forecast period: 1000 to 2100 UTC 20 May 2019
Forecast type: TEMPORARY: The following changes expected for less than half the time period
Visibility: missing
Ceiling: at least 12,000 feet AGL
Clouds: scattered clouds at 2500 feet AGL
Weather: SHRA  (rain showers)
Text: PROB30 2014/2021 7000 TSRA
Forecast period: 1400 to 2100 UTC 20 May 2019
Forecast type: PROBABLE: 30 percent likelihood of the following during this time
Visibility: 4 miles (7 km)
Ceiling: unknown
Clouds: missing
Weather: TSRA  (rain associated with thunderstorm(s))

 AIRPORT MAP

 RUNWAY INFORMATION
Runway 12 Runway length 8205 ft Runway width 197 ft
Runway elevation 47 ft Runway displaced threshold 0 ft Runway heading 121
Runway 30 Runway length 8205 ft Runway width 197 ft
Runway elevation 33 ft Runway displaced threshold 0 ft Runway heading 301

 AIRPORT FREQUENCIES
Type ATIS Name ATIS Frequency 135.45 MHZ
Type TWR Name TWR Frequency 124.4 MHZ

 AIRPORT NEAR NAVIGATION AIDS
Type NDB Name Laanila Frequency 350 KHZ
Type VOR-DME Name Oulu Frequency 113300 KHZ